createdAt,value
2018-02-11T00:00:55.986Z,12.00
2018-02-11T00:03:35.199Z,10.00
2018-02-11T00:06:06.646Z,12.00
2018-02-11T00:08:39.084Z,14.75
2018-02-11T00:11:09.852Z,10.00
2018-02-11T00:13:41.116Z,12.00
2018-02-11T00:16:12.948Z,12.50
2018-02-11T00:18:44.178Z,14.00
2018-02-11T00:21:15.180Z,16.25
2018-02-11T00:23:47.409Z,14.00
2018-02-11T00:26:19.037Z,15.50
2018-02-11T00:28:50.547Z,13.75
2018-02-11T00:31:22.265Z,13.00
2018-02-11T00:33:53.595Z,12.50
2018-02-11T00:36:24.353Z,14.00
2018-02-11T00:38:55.554Z,13.00
2018-02-11T00:41:26.222Z,16.00
2018-02-11T00:43:57.074Z,15.50
2018-02-11T00:46:27.480Z,13.50
2018-02-11T00:48:58.702Z,15.00
2018-02-11T00:51:28.983Z,16.75
2018-02-11T00:54:02.406Z,14.50
2018-02-11T00:56:33.492Z,16.75
2018-02-11T00:59:04.276Z,16.00
2018-02-11T01:01:35.198Z,12.75
2018-02-11T01:04:06.012Z,17.00
2018-02-11T01:06:42.307Z,19.25
2018-02-11T01:09:13.377Z,13.75
2018-02-11T01:11:44.871Z,16.50
2018-02-11T01:14:16.934Z,15.75
2018-02-11T01:16:48.281Z,16.25
2018-02-11T01:19:18.988Z,18.25
2018-02-11T01:21:49.395Z,19.75
2018-02-11T01:24:20.197Z,17.25
2018-02-11T01:26:50.481Z,20.75
2018-02-11T01:29:20.959Z,18.50
2018-02-11T01:31:51.772Z,18.75
2018-02-11T01:34:22.512Z,16.50
2018-02-11T01:36:52.915Z,16.25
2018-02-11T01:39:23.849Z,18.25
2018-02-11T01:41:57.614Z,22.75
2018-02-11T01:44:28.377Z,15.00
2018-02-11T01:46:59.294Z,16.25
2018-02-11T01:49:31.169Z,15.75
2018-02-11T01:52:02.051Z,18.50
2018-02-11T01:54:33.042Z,17.50
2018-02-11T01:57:03.568Z,19.25
2018-02-11T01:59:35.509Z,19.25
2018-02-11T02:02:06.995Z,19.25
2018-02-11T02:04:37.591Z,17.00
2018-02-11T02:07:08.368Z,19.75
2018-02-11T02:09:39.879Z,22.00
2018-02-11T02:12:10.995Z,20.75
2018-02-11T02:14:42.177Z,23.25
2018-02-11T02:17:13.181Z,22.75
2018-02-11T02:19:43.852Z,23.00
2018-02-11T02:22:16.217Z,21.50
2018-02-11T02:24:47.289Z,25.25
2018-02-11T02:27:18.660Z,22.75
2018-02-11T02:29:49.269Z,23.00
2018-02-11T02:32:19.707Z,18.50
2018-02-11T02:34:50.499Z,19.50
2018-02-11T02:37:21.642Z,17.25
2018-02-11T02:39:52.319Z,24.50
2018-02-11T02:42:23.182Z,20.00
2018-02-11T02:44:53.922Z,16.75
2018-02-11T02:47:24.273Z,18.75
2018-02-11T02:49:55.006Z,18.75
2018-02-11T02:52:26.401Z,16.75
2018-02-11T02:54:59.712Z,18.00
2018-02-11T02:57:31.127Z,21.25
2018-02-11T03:00:04.766Z,16.75
2018-02-11T03:02:35.800Z,14.75
2018-02-11T03:05:06.940Z,17.25
2018-02-11T03:07:37.811Z,16.75
2018-02-11T03:10:09.077Z,18.25
2018-02-11T03:12:39.450Z,19.50
2018-02-11T03:15:12.511Z,17.25
2018-02-11T03:17:43.923Z,18.75
2018-02-11T03:20:15.975Z,18.25
2018-02-11T03:22:47.055Z,16.75
2018-02-11T03:25:18.797Z,18.75
2018-02-11T03:27:49.885Z,21.50
2018-02-11T03:30:21.020Z,14.50
2018-02-11T03:32:51.892Z,15.50
2018-02-11T03:35:24.781Z,17.25
2018-02-11T03:37:56.435Z,15.75
2018-02-11T03:40:27.412Z,25.25
2018-02-11T03:42:57.733Z,17.00
2018-02-11T03:45:28.464Z,15.25
2018-02-11T03:47:59.244Z,14.50
2018-02-11T03:50:29.854Z,17.50
2018-02-11T03:53:01.131Z,15.00
2018-02-11T03:55:32.299Z,17.50
2018-02-11T03:58:02.919Z,13.50
2018-02-11T04:00:33.939Z,19.25
2018-02-11T04:03:04.628Z,17.00
2018-02-11T04:05:35.337Z,14.25
2018-02-11T04:08:06.131Z,14.75
2018-02-11T04:10:37.211Z,16.75
2018-02-11T04:13:08.243Z,17.50
2018-02-11T04:15:39.118Z,17.75
2018-02-11T04:18:09.905Z,13.00
2018-02-11T04:20:40.890Z,16.75
2018-02-11T04:23:12.057Z,13.25
2018-02-11T04:25:43.135Z,15.00
2018-02-11T04:28:13.459Z,14.75
2018-02-11T04:30:43.895Z,17.50
2018-02-11T04:33:15.704Z,16.25
2018-02-11T04:35:46.287Z,14.25
2018-02-11T04:38:18.089Z,15.75
2018-02-11T04:40:48.392Z,18.75
2018-02-11T04:43:19.034Z,13.75
2018-02-11T04:45:50.846Z,15.25
2018-02-11T04:48:22.230Z,14.75
2018-02-11T04:50:52.583Z,14.75
2018-02-11T04:53:23.942Z,12.75
2018-02-11T04:55:57.042Z,13.25
2018-02-11T04:58:35.860Z,15.25
2018-02-11T05:01:06.798Z,12.75
2018-02-11T05:03:42.445Z,15.00
2018-02-11T05:06:13.150Z,13.75
2018-02-11T05:08:44.461Z,15.50
2018-02-11T05:11:15.561Z,14.75
2018-02-11T05:13:46.359Z,14.75
2018-02-11T05:16:17.022Z,11.50
2018-02-11T05:18:47.149Z,12.75
2018-02-11T05:21:17.579Z,13.25
2018-02-11T05:23:48.198Z,14.75
2018-02-11T05:26:19.049Z,14.50
2018-02-11T05:28:49.744Z,13.00
2018-02-11T05:31:21.323Z,12.75
2018-02-11T05:33:52.169Z,14.75
2018-02-11T05:36:23.396Z,12.75
2018-02-11T05:38:54.452Z,17.00
2018-02-11T05:41:25.508Z,13.75
2018-02-11T05:43:56.925Z,12.75
2018-02-11T05:46:28.464Z,10.75
2018-02-11T05:48:59.207Z,10.00
2018-02-11T05:51:42.248Z,10.75
2018-02-11T05:54:13.140Z,10.75
2018-02-11T05:56:44.508Z,10.75
2018-02-11T05:59:15.125Z,9.25
2018-02-11T06:01:46.942Z,11.50
2018-02-11T06:04:17.973Z,14.00
2018-02-11T06:06:48.277Z,9.75
2018-02-11T06:09:22.467Z,11.50
2018-02-11T06:11:53.722Z,8.50
2018-02-11T06:14:26.123Z,11.00
2018-02-11T06:16:56.844Z,11.75
2018-02-11T06:19:28.009Z,8.75
2018-02-11T06:21:59.042Z,11.25
2018-02-11T06:24:30.172Z,10.75
2018-02-11T06:27:01.362Z,9.25
2018-02-11T06:29:34.073Z,9.00
2018-02-11T06:32:05.526Z,7.00
2018-02-11T06:34:36.432Z,10.50
2018-02-11T06:40:12.794Z,7.00
2018-02-11T06:42:44.699Z,9.25
2018-02-11T06:45:18.573Z,7.25
2018-02-11T06:48:01.126Z,7.00
2018-02-11T06:50:32.915Z,7.00
2018-02-11T06:53:03.735Z,7.00
2018-02-11T06:55:33.991Z,7.00
2018-02-11T06:58:05.857Z,5.00
2018-02-11T07:00:37.353Z,5.00
2018-02-11T07:03:08.193Z,8.50
2018-02-11T07:05:39.166Z,6.50
2018-02-11T07:08:10.611Z,7.00
2018-02-11T07:10:41.972Z,7.00
2018-02-11T07:13:12.602Z,3.00
2018-02-11T07:15:43.041Z,4.50
2018-02-11T07:18:13.705Z,4.50
2018-02-11T07:20:45.397Z,3.00
2018-02-11T07:23:16.035Z,5.50
2018-02-11T07:25:47.112Z,3.00
2018-02-11T07:28:18.675Z,3.50
2018-02-11T07:30:49.641Z,5.00
2018-02-11T07:33:20.406Z,5.00
2018-02-11T07:35:52.508Z,5.00
2018-02-11T07:38:22.879Z,3.00
2018-02-11T07:40:53.768Z,2.50
2018-02-11T07:43:25.292Z,1.00
2018-02-11T07:45:55.801Z,3.00
2018-02-11T07:48:26.682Z,3.00
2018-02-11T07:50:58.805Z,1.00
2018-02-11T07:53:29.863Z,1.00
2018-02-11T07:56:01.512Z,2.50
2018-02-11T07:58:33.134Z,1.00
2018-02-11T08:01:04.693Z,1.00
2018-02-11T08:03:36.339Z,1.00
2018-02-11T08:06:07.154Z,1.00
2018-02-11T08:08:38.330Z,1.00
2018-02-11T08:11:09.311Z,1.50
2018-02-11T08:13:41.071Z,2.00
2018-02-11T08:16:12.025Z,1.00
2018-02-11T08:18:42.899Z,2.00
2018-02-11T08:21:14.340Z,1.00
2018-02-11T08:23:44.679Z,1.00
2018-02-11T08:26:14.962Z,1.00
2018-02-11T08:28:47.038Z,1.00
2018-02-11T08:31:17.529Z,1.00
2018-02-11T08:33:54.006Z,1.00
2018-02-11T08:36:24.781Z,3.00
2018-02-11T08:38:57.430Z,1.00
2018-02-11T08:41:27.558Z,1.00
2018-02-11T08:43:59.570Z,1.50
2018-02-11T08:46:30.987Z,3.25
2018-02-11T08:49:02.643Z,4.75
2018-02-11T08:51:33.441Z,3.00
2018-02-11T08:54:04.595Z,4.75
2018-02-11T08:56:35.481Z,4.25
2018-02-11T08:59:06.388Z,3.00
2018-02-11T09:01:37.707Z,3.00
2018-02-11T09:04:08.471Z,3.25
2018-02-11T09:06:42.696Z,3.00
2018-02-11T09:09:13.446Z,4.00
2018-02-11T09:11:44.517Z,4.00
2018-02-11T09:14:15.500Z,7.00
2018-02-11T09:16:49.204Z,3.75
2018-02-11T09:19:20.032Z,3.00
2018-02-11T09:21:50.456Z,4.00
2018-02-11T09:24:21.581Z,4.00
2018-02-11T09:26:52.237Z,3.75
2018-02-11T09:29:22.754Z,4.00
2018-02-11T09:31:53.519Z,8.00
2018-02-11T09:34:24.272Z,6.00
2018-02-11T09:36:55.747Z,7.00
2018-02-11T09:39:31.680Z,4.25
2018-02-11T09:42:03.016Z,6.00
2018-02-11T09:44:33.653Z,7.50
2018-02-11T09:47:04.771Z,7.50
2018-02-11T09:49:36.319Z,6.00
2018-02-11T09:52:07.106Z,6.00
2018-02-11T09:54:38.436Z,7.75
2018-02-11T09:57:09.198Z,4.00
2018-02-11T09:59:40.360Z,7.75
2018-02-11T10:02:11.266Z,7.75
2018-02-11T10:04:42.496Z,3.25
2018-02-11T10:07:13.216Z,6.50
2018-02-11T10:09:43.717Z,9.00
2018-02-11T10:12:14.577Z,7.75
2018-02-11T10:14:45.530Z,7.75
2018-02-11T10:17:16.833Z,6.75
2018-02-11T10:19:48.028Z,7.75
2018-02-11T10:22:19.252Z,7.00
2018-02-11T10:24:51.294Z,14.00
2018-02-11T10:27:22.173Z,13.00
2018-02-11T10:29:52.576Z,7.75
2018-02-11T10:32:23.980Z,9.50
2018-02-11T10:34:55.014Z,11.00
2018-02-11T10:37:26.034Z,11.25
2018-02-11T10:39:57.925Z,9.00
2018-02-11T10:42:28.485Z,8.75
2018-02-11T10:44:59.705Z,9.75
2018-02-11T10:47:32.413Z,11.00
2018-02-11T10:50:03.984Z,11.00
2018-02-11T10:52:34.753Z,12.25
2018-02-11T10:55:06.290Z,11.00
2018-02-11T10:57:38.149Z,10.50
2018-02-11T11:00:10.870Z,11.00
2018-02-11T11:05:31.623Z,15.75
2018-02-11T11:08:04.769Z,9.00
2018-02-11T11:10:37.024Z,12.75
2018-02-11T11:13:08.215Z,9.00
2018-02-11T11:15:40.517Z,18.75
2018-02-11T11:18:12.074Z,7.75
2018-02-11T11:20:42.993Z,10.75
2018-02-11T11:23:14.198Z,7.75
2018-02-11T11:25:46.575Z,10.00
2018-02-11T11:28:17.683Z,9.25
2018-02-11T11:30:51.903Z,16.75
2018-02-11T11:33:23.751Z,9.75
2018-02-11T11:35:54.366Z,6.00
2018-02-11T11:38:26.330Z,7.00
2018-02-11T11:40:57.565Z,6.00
2018-02-11T11:43:28.930Z,7.00
2018-02-11T11:46:02.560Z,13.00
2018-02-11T11:48:33.746Z,7.75
2018-02-11T11:51:04.398Z,11.75
2018-02-11T11:53:43.372Z,14.00
2018-02-11T11:56:14.764Z,9.00
2018-02-11T11:58:47.943Z,6.75
2018-02-11T12:01:19.975Z,6.75
2018-02-11T12:03:51.940Z,19.50
2018-02-11T12:06:23.648Z,26.50
2018-02-11T12:08:55.198Z,51.75
2018-02-11T12:11:26.672Z,47.50
2018-02-11T12:14:00.339Z,36.00
2018-02-11T12:16:39.287Z,35.00
2018-02-11T12:19:10.859Z,29.25
2018-02-11T12:21:45.032Z,40.75
2018-02-11T12:24:18.416Z,44.75
2018-02-11T12:26:50.905Z,46.75
2018-02-11T12:29:23.223Z,28.50
2018-02-11T12:31:55.768Z,27.50
2018-02-11T12:34:27.923Z,20.75
2018-02-11T12:37:01.371Z,24.50
2018-02-11T12:39:33.042Z,21.50
2018-02-11T12:42:04.122Z,18.50
2018-02-11T12:44:38.126Z,18.50
2018-02-11T12:47:11.586Z,13.75
2018-02-11T12:49:43.705Z,14.00
2018-02-11T12:52:16.290Z,23.25
2018-02-11T12:54:48.989Z,22.00
2018-02-11T12:57:22.227Z,23.25
2018-02-11T12:59:54.213Z,18.50
2018-02-11T13:02:25.278Z,23.75
2018-02-11T13:04:58.695Z,18.00
2018-02-11T13:07:30.306Z,10.75
2018-02-11T13:10:02.818Z,15.25
2018-02-11T13:12:36.381Z,12.50
2018-02-11T13:15:09.991Z,9.00
2018-02-11T13:17:46.177Z,7.50
2018-02-11T13:20:18.413Z,8.25
2018-02-11T13:23:01.069Z,8.50
2018-02-11T13:25:32.874Z,7.75
2018-02-11T13:28:05.204Z,9.00
2018-02-11T13:30:37.165Z,8.00
2018-02-11T13:33:08.327Z,6.00
2018-02-11T13:35:40.405Z,9.00
2018-02-11T13:38:11.700Z,9.75
2018-02-11T13:40:42.981Z,9.75
2018-02-11T13:43:16.341Z,11.75
2018-02-11T13:45:51.364Z,10.75
2018-02-11T13:48:23.527Z,15.75
2018-02-11T13:50:54.921Z,12.00
2018-02-11T13:53:26.303Z,16.50
2018-02-11T13:55:58.885Z,15.75
2018-02-11T13:58:33.509Z,10.75
2018-02-11T14:01:08.219Z,13.25
2018-02-11T14:03:40.302Z,13.25
2018-02-11T14:06:14.332Z,10.75
2018-02-11T14:08:47.569Z,11.00
2018-02-11T14:11:22.066Z,12.25
2018-02-11T14:14:05.044Z,9.50
2018-02-11T14:16:38.497Z,18.50
2018-02-11T14:19:09.843Z,18.75
2018-02-11T14:21:43.756Z,11.50
2018-02-11T14:24:17.012Z,13.75
2018-02-11T14:26:50.191Z,12.50
2018-02-11T14:29:23.780Z,15.75
2018-02-11T14:32:00.659Z,12.75
2018-02-11T14:34:37.242Z,8.75
2018-02-11T14:37:10.963Z,13.00
2018-02-11T14:39:42.213Z,15.25
2018-02-11T14:42:16.947Z,14.00
2018-02-11T14:44:52.433Z,18.25
2018-02-11T14:47:26.402Z,12.75
2018-02-11T14:49:59.701Z,19.50
2018-02-11T14:52:36.300Z,15.75
2018-02-11T14:55:11.292Z,23.25
2018-02-11T14:57:46.140Z,17.00
2018-02-11T15:00:22.164Z,14.00
2018-02-11T15:03:02.029Z,14.50
2018-02-11T15:05:36.940Z,14.00
2018-02-11T15:10:51.034Z,13.50
2018-02-11T15:13:26.668Z,11.75
2018-02-11T15:16:01.448Z,11.75
2018-02-11T15:18:36.799Z,15.75
2018-02-11T15:21:13.994Z,11.00
2018-02-11T15:23:49.430Z,10.00
2018-02-11T15:26:26.200Z,11.25
2018-02-11T15:29:00.905Z,12.00
2018-02-11T15:31:37.862Z,13.50
2018-02-11T15:34:13.794Z,21.00
2018-02-11T15:36:50.475Z,22.50
2018-02-11T15:39:27.561Z,25.25
2018-02-11T15:42:05.492Z,30.25
2018-02-11T15:47:07.515Z,28.75
2018-02-11T15:49:42.048Z,27.00
2018-02-11T15:52:23.656Z,19.25
2018-02-11T15:55:01.743Z,22.50
2018-02-11T15:57:41.898Z,19.25
2018-02-11T16:00:26.949Z,17.00
2018-02-11T16:03:12.167Z,11.50
2018-02-11T16:05:53.279Z,14.00
2018-02-11T16:08:30.292Z,14.00
2018-02-11T16:11:08.244Z,16.75
2018-02-11T16:13:46.169Z,15.50
2018-02-11T16:16:26.104Z,17.75
2018-02-11T16:19:02.180Z,21.50
2018-02-11T16:21:38.376Z,14.00
2018-02-11T16:24:16.745Z,14.00
2018-02-11T16:26:57.373Z,12.75
2018-02-11T16:29:36.187Z,9.25
2018-02-11T16:32:15.699Z,9.25
2018-02-11T16:35:01.121Z,17.50
2018-02-11T16:37:35.369Z,16.00
2018-02-11T16:40:19.739Z,11.00
2018-02-11T16:43:06.811Z,18.25
2018-02-11T16:45:44.389Z,15.50
2018-02-11T16:48:27.151Z,18.00
2018-02-11T16:51:05.856Z,14.25
2018-02-11T16:53:41.853Z,19.00
2018-02-11T16:56:17.328Z,18.50
2018-02-11T17:01:37.228Z,23.25
2018-02-11T17:04:17.401Z,26.75
2018-02-11T17:07:06.053Z,34.75
2018-02-11T17:09:44.845Z,31.50
2018-02-11T17:15:07.315Z,16.25
2018-02-11T17:17:41.981Z,11.00
2018-02-11T17:20:17.416Z,7.00
2018-02-11T17:22:53.581Z,6.00
2018-02-11T17:25:27.928Z,4.75
2018-02-11T17:28:09.526Z,4.75
2018-02-11T17:30:48.613Z,6.50
2018-02-11T17:33:30.043Z,10.00
2018-02-11T17:36:11.755Z,6.00
2018-02-11T17:38:47.112Z,10.75
2018-02-11T17:41:32.633Z,6.00
2018-02-11T17:44:08.610Z,5.00
2018-02-11T17:46:45.828Z,9.75
2018-02-11T17:49:21.664Z,5.25
2018-02-11T17:52:00.239Z,13.00
2018-02-11T17:54:38.218Z,5.75
2018-02-11T17:57:15.196Z,9.25
2018-02-11T17:59:52.237Z,9.25
2018-02-11T18:02:33.786Z,19.50
2018-02-11T18:05:09.696Z,11.00
2018-02-11T18:07:46.857Z,7.50
2018-02-11T18:10:24.302Z,6.00
2018-02-11T18:13:18.914Z,11.25
2018-02-11T18:15:58.984Z,20.50
2018-02-11T18:18:42.664Z,29.75
2018-02-11T18:21:23.273Z,41.00
2018-02-11T18:26:58.092Z,34.00
2018-02-11T18:29:40.293Z,30.75
2018-02-11T18:32:26.679Z,20.75
2018-02-11T18:35:08.978Z,13.00
2018-02-11T18:37:46.355Z,13.00
2018-02-11T18:40:26.427Z,13.00
2018-02-11T18:43:12.950Z,11.75
2018-02-11T18:45:55.782Z,11.00
2018-02-11T18:48:34.014Z,16.75
2018-02-11T18:51:12.880Z,8.00
2018-02-11T18:53:49.874Z,6.00
2018-02-11T18:56:25.317Z,14.50
2018-02-11T18:59:00.319Z,25.75
2018-02-11T19:01:36.801Z,13.25
2018-02-11T19:04:17.996Z,15.00
2018-02-11T19:06:56.450Z,9.50
2018-02-11T19:09:33.528Z,9.50
2018-02-11T19:12:12.017Z,14.75
2018-02-11T19:14:49.937Z,12.25
2018-02-11T19:17:28.854Z,10.50
2018-02-11T19:20:05.618Z,14.00
2018-02-11T19:22:41.356Z,11.75
2018-02-11T19:25:19.144Z,7.75
2018-02-11T19:28:00.580Z,5.50
2018-02-11T19:30:40.640Z,14.25
2018-02-11T19:33:14.634Z,9.50
2018-02-11T19:35:54.034Z,8.00
2018-02-11T19:38:30.666Z,6.00
2018-02-11T19:41:15.756Z,10.00
2018-02-11T19:43:51.117Z,11.75
2018-02-11T19:46:28.989Z,14.25
2018-02-11T19:49:13.163Z,12.75
2018-02-11T19:54:29.491Z,8.00
2018-02-11T19:57:06.031Z,8.50
2018-02-11T19:59:40.910Z,6.00
2018-02-11T20:02:18.032Z,7.25
2018-02-11T20:04:54.997Z,7.25
2018-02-11T20:07:35.278Z,13.75
2018-02-11T20:10:11.303Z,10.00
2018-02-11T20:12:45.289Z,9.00
2018-02-11T20:15:22.993Z,8.00
2018-02-11T20:17:59.197Z,10.25
2018-02-11T20:20:34.965Z,6.00
2018-02-11T20:23:17.151Z,8.00
2018-02-11T20:25:53.871Z,8.50
2018-02-11T20:28:28.719Z,6.75
2018-02-11T20:31:13.844Z,7.25
2018-02-11T20:33:48.603Z,15.75
2018-02-11T20:36:24.290Z,10.50
2018-02-11T20:38:57.799Z,15.25
2018-02-11T20:41:32.104Z,12.75
2018-02-11T20:44:07.213Z,8.00
2018-02-11T20:46:41.421Z,5.00
2018-02-11T20:49:14.930Z,12.50
2018-02-11T20:51:47.678Z,8.00
2018-02-11T20:54:19.999Z,18.00
2018-02-11T20:56:52.519Z,8.50
2018-02-11T20:59:26.763Z,9.25
2018-02-11T21:02:03.988Z,8.00
2018-02-11T21:04:36.886Z,8.00
2018-02-11T21:07:12.349Z,17.25
2018-02-11T21:09:49.706Z,13.25
2018-02-11T21:12:23.723Z,8.25
2018-02-11T21:14:57.179Z,11.50
2018-02-11T21:17:30.740Z,13.50
2018-02-11T21:20:03.950Z,13.00
2018-02-11T21:22:37.077Z,10.00
2018-02-11T21:25:10.720Z,14.00
2018-02-11T21:27:44.218Z,9.50
2018-02-11T21:30:20.451Z,12.00
2018-02-11T21:32:54.167Z,8.25
2018-02-11T21:35:27.078Z,12.25
2018-02-11T21:37:58.802Z,15.75
2018-02-11T21:40:31.772Z,6.75
2018-02-11T21:43:04.100Z,10.25
2018-02-11T21:45:37.823Z,10.00
2018-02-11T21:48:10.968Z,8.50
2018-02-11T21:50:42.970Z,10.00
2018-02-11T21:53:14.486Z,12.75
2018-02-11T21:55:45.965Z,8.75
2018-02-11T21:58:17.808Z,8.25
2018-02-11T22:00:49.967Z,8.25
2018-02-11T22:03:26.107Z,12.00
2018-02-11T22:05:58.130Z,8.00
2018-02-11T22:08:31.689Z,14.00
2018-02-11T22:11:05.563Z,12.00
2018-02-11T22:13:36.566Z,13.50
2018-02-11T22:16:08.248Z,15.25
2018-02-11T22:18:39.886Z,13.50
2018-02-11T22:21:11.342Z,14.00
2018-02-11T22:23:42.432Z,12.00
2018-02-11T22:26:13.756Z,10.50
2018-02-11T22:28:46.271Z,9.00
2018-02-11T22:31:17.516Z,9.25
2018-02-11T22:33:48.450Z,11.50
2018-02-11T22:36:18.785Z,9.75
2018-02-11T22:38:50.040Z,11.25
2018-02-11T22:41:22.547Z,8.00
2018-02-11T22:43:53.809Z,9.75
2018-02-11T22:46:27.504Z,10.25
2018-02-11T22:48:58.931Z,10.00
2018-02-11T22:51:33.432Z,18.25
2018-02-11T22:54:05.432Z,20.00
2018-02-11T22:56:36.335Z,12.25
2018-02-11T22:59:08.609Z,12.00
2018-02-11T23:01:39.400Z,12.00
2018-02-11T23:04:11.234Z,14.75
2018-02-11T23:06:42.176Z,12.75
2018-02-11T23:09:12.752Z,13.50
2018-02-11T23:11:43.449Z,16.00
2018-02-11T23:14:13.851Z,12.00
2018-02-11T23:16:45.071Z,13.75
2018-02-11T23:19:16.460Z,15.25
2018-02-11T23:21:47.594Z,12.00
2018-02-11T23:24:18.334Z,10.00
2018-02-11T23:26:49.267Z,9.25
2018-02-11T23:29:20.077Z,14.25
2018-02-11T23:31:51.370Z,7.00
2018-02-11T23:34:22.114Z,11.50
2018-02-11T23:36:53.260Z,15.50
2018-02-11T23:39:24.924Z,14.25
2018-02-11T23:41:55.889Z,8.50
2018-02-11T23:44:28.694Z,11.00
2018-02-11T23:47:00.859Z,13.75
2018-02-11T23:49:32.196Z,10.50
2018-02-11T23:52:02.943Z,12.25
2018-02-11T23:54:34.799Z,15.75
2018-02-11T23:57:05.267Z,15.50
2018-02-11T23:59:36.064Z,20.75
